Weather observations for the past three days for
Batesville, Batesville Regional Airport
Metric (Imperial)
Date Time (cdt) Wind (kph) Vis. (km) Weather Sky Cond. Temperature (ºC) Relative Humidity Wind Chill (°C) Heat Index (°C) Pressure Precipitation (cm)
Air Dwpt 6 hour altimeter (cm) sea level (mb) 1 hr 3 hr 6 hr
Max. Min.
30 18:56 S 11 16.09 Fair CLR 33.9 14.4 37.8 33.9 31% 33 76.2 1015.4
30 17:56 S 13 16.09 Fair CLR 35 13.3 27% 34 76.2 1015.3
30 16:56 Vrbl 9 16.09 Fair CLR 36.1 12.2 24% 35 76.2 1015.5
30 15:56 SE 19 16.09 Fair CLR 36.7 12.8 24% 36 76.2 1015.5
30 14:56 S 13 16.09 Fair CLR 36.1 11.1 22% 35 76.25 1016.2
30 13:56 W 19 G 26 16.09 Fair CLR 35.6 13.9 27% 35 76.28 1016.6
30 11:56 S 19 G 28 16.09 Fair CLR 33.9 14.4 31% 33 76.4 1018.1
30 10:56 SW 19 G 28 16.09 Fair CLR 33.3 15 33% 33 76.4 1018.1
30 09:56 SW 11 16.09 Fair CLR 30 14.4 39% 30 76.43 1018.5
30 08:56 Calm 16.09 Fair CLR 25 15 54% 26 76.45 1018.6
30 07:56 Calm 16.09 Fair CLR 20 14.4 70% 76.45 1018.9
30 06:56 Calm 16.09 Fair CLR 16.7 13.3 21.1 15.6 80% 76.4 1018.3
30 05:56 Calm 16.09 Fair CLR 16.7 13.3 80% 76.35 1017.6
30 04:56 Calm 16.09 Fair CLR 16.7 13.3 80% 76.35 1017.3
30 03:56 Calm 16.09 Fair CLR 17.8 12.8 73% 76.35 1017.5
30 02:56 Calm 16.09 Fair CLR 18.3 12.8 70% 76.35 1017.7
30 01:56 Calm 16.09 Fair CLR 19.4 13.3 68% 76.38 1018.0
30 00:56 Calm 16.09 Fair CLR 21.1 13.3 31.7 21.1 61% 76.38 1017.9
29 23:56 Calm 16.09 Fair CLR 22.2 13.3 57% 76.35 1017.7
29 22:56 SE 7 16.09 Fair CLR 23.9 13.9 54% 25 76.35 1017.5
29 21:56 SE 6 16.09 Fair CLR 26.7 13.3 44% 27 76.38 1017.8
29 20:56 SE 6 16.09 Fair CLR 27.2 13.9 44% 27 76.33 1017.2
29 19:56 SE 9 16.09 Fair CLR 28.9 13.3 38% 28 76.3 1016.8
29 18:56 E 17 16.09 Fair CLR 32.2 13.3 36.1 32.2 32% 31 76.28 1016.7
29 17:56 SE 17 16.09 Fair CLR 33.9 13.3 29% 33 76.28 1016.5
29 16:56 E 20 16.09 Fair CLR 35.6 13.9 27% 35 76.28 1016.5
29 15:56 SE 13 G 28 16.09 Fair CLR 35 14.4 29% 34 76.3 1016.8
29 14:56 NE 7 16.09 Fair CLR 35 13.3 27% 34 76.35 1017.4
29 13:56 Vrbl 7 16.09 Fair CLR 33.3 12.2 28% 32 76.4 1018.4
29 12:56 Vrbl 11 16.09 Fair CLR 33.3 13.3 33.3 17.2 30% 32 76.48 1019.3
29 11:56 Vrbl 6 16.09 Fair CLR 31.7 13.9 34% 31 76.53 1020.0
29 10:56 Vrbl 7 16.09 Fair CLR 30.6 16.7 43% 31 76.58 1020.5
28 14:56 E 15 16.09 Fair CLR 32.2 15.6 37% 32 76.38 1017.9
28 13:56 E 17 16.09 Fair CLR 34.4 16.1 33% 35 76.43 1018.5
28 12:56 Vrbl 9 16.09 Partly Cloudy SCT060 32.2 15.6 32.8 19.4 37% 32 76.48 1019.3
28 11:56 Vrbl 9 16.09 Partly Cloudy SCT065 32.2 16.7 39% 32 76.56 1020.3
28 10:56 NE 9 16.09 Fair CLR 30.6 17.2 45% 31 76.58 1020.5
28 09:56 E 9 16.09 Fair CLR 28.3 17.8 53% 29 76.56 1020.2
28 08:56 Vrbl 6 16.09 Fair CLR 24.4 18.3 69% 25 76.56 1020.2
28 07:56 Vrbl 6 16.09 Fair CLR 21.1 18.3 84% 76.53 1019.7
28 06:56 NW 6 16.09 Fair CLR 19.4 17.8 22.8 19.4 91% 76.48 1019.2
28 05:56 NW 6 16.09 Fair CLR 19.4 17.8 91% 76.43 1018.8
28 04:56 NW 7 16.09 Fair CLR 20 18.3 90% 76.43 1018.4
28 03:56 NW 6 16.09 Fair CLR 20.6 18.3 87% 76.4 1018.1
28 02:56 NW 7 16.09 Fair CLR 21.7 17.8 79% 76.38 1018.0
28 01:56 NW 6 16.09 Fair CLR 22.2 17.8 76% 76.4 1018.0
28 00:56 Calm 16.09 Fair CLR 22.2 17.2 32.2 22.2 73% 76.38 1017.7
27 23:56 NE 6 16.09 Fair CLR 24.4 17.2 64% 25 76.35 1017.5
27 22:56 NE 7 16.09 Fair CLR 26.1 17.8 60% 27 76.3 1016.9
27 21:56 E 13 16.09 Fair CLR 26.7 17.8 58% 28 76.25 1016.2
27 20:56 E 17 16.09 A Few Clouds FEW080 28.3 17.8 53% 29 76.17 1015.0
27 19:56 E 20 16.09 Mostly Cloudy BKN090 30 18.3 49% 31 76.12 1014.3
Date Time (cdt) Wind (kph) Vis. (km) Weather Sky Cond. Air Dwpt Max. Min. Relative Humidity Wind Chill (°C) Heat Index (°C) altimeter (cm) sea level (mb) 1 hr 3 hr 6 hr
6 hour
Temperature (ºC) Pressure Precipitation (cm)